createdAt,value
2023-02-09T00:00:52.341Z,102162.44
2023-02-09T00:04:55.583Z,102148.44
2023-02-09T00:08:59.393Z,102157.25
2023-02-09T00:13:20.194Z,102149.38
2023-02-09T00:17:24.579Z,102158.19
2023-02-09T00:21:27.580Z,102149.53
2023-02-09T00:25:30.654Z,102140.56
2023-02-09T00:29:33.728Z,102143.19
2023-02-09T00:33:38.934Z,102147.13
2023-02-09T00:37:42.478Z,102153.03
2023-02-09T00:42:03.263Z,102147.34
2023-02-09T00:46:07.057Z,102148.31
2023-02-09T00:50:11.535Z,102154.06
2023-02-09T00:54:14.773Z,102153.22
2023-02-09T00:58:18.364Z,102163.75
2023-02-09T01:02:21.386Z,102164.72
2023-02-09T01:06:25.901Z,102156.78
2023-02-09T01:10:28.941Z,102165.03
2023-02-09T01:14:31.991Z,102159.09
2023-02-09T01:18:35.707Z,102165.00
2023-02-09T01:22:40.626Z,102156.28
2023-02-09T01:26:43.729Z,102155.22
2023-02-09T01:30:47.107Z,102149.41
2023-02-09T01:34:52.325Z,102153.44
2023-02-09T01:38:57.373Z,102146.41
2023-02-09T01:43:00.401Z,102153.19
2023-02-09T01:47:03.389Z,102162.72
2023-02-09T01:51:06.928Z,102151.03
2023-02-09T01:55:14.424Z,102156.03
2023-02-09T01:59:17.997Z,102152.00
2023-02-09T02:03:23.695Z,102164.63
2023-02-09T02:07:32.416Z,102169.31
2023-02-09T02:11:37.194Z,102163.72
2023-02-09T02:15:50.165Z,102161.53
2023-02-09T02:20:18.401Z,102163.94
2023-02-09T02:24:42.593Z,102168.31
2023-02-09T02:29:13.266Z,102168.31
2023-02-09T02:33:30.567Z,102176.22
2023-02-09T02:37:45.584Z,102186.25
2023-02-09T02:42:13.800Z,102184.06
2023-02-09T02:46:22.574Z,102183.91
2023-02-09T02:50:30.699Z,102172.41
2023-02-09T02:54:37.708Z,102172.25
2023-02-09T02:58:43.561Z,102181.22
2023-02-09T03:02:50.722Z,102175.78
2023-02-09T03:06:55.102Z,102174.75
2023-02-09T03:10:58.461Z,102163.44
2023-02-09T03:15:19.503Z,102160.97
2023-02-09T03:19:34.340Z,102156.59
2023-02-09T03:23:46.527Z,102162.94
2023-02-09T03:27:54.825Z,102152.72
2023-02-09T03:31:58.329Z,102158.59
2023-02-09T03:36:07.924Z,102153.31
2023-02-09T03:40:13.123Z,102141.84
2023-02-09T03:44:28.027Z,102146.00
2023-02-09T03:48:31.032Z,102129.56
2023-02-09T03:52:34.466Z,102126.66
2023-02-09T03:56:38.843Z,102120.25
2023-02-09T04:00:41.923Z,102122.31
2023-02-09T04:04:45.104Z,102118.53
2023-02-09T04:08:48.392Z,102114.91
2023-02-09T04:12:52.786Z,102118.00
2023-02-09T04:16:55.937Z,102119.38
2023-02-09T04:20:58.953Z,102110.38
2023-02-09T04:25:01.951Z,102105.44
2023-02-09T04:29:06.328Z,102098.25
2023-02-09T04:33:10.842Z,102089.78
2023-02-09T04:37:13.871Z,102085.78
2023-02-09T04:41:16.929Z,102078.00
2023-02-09T04:45:21.375Z,102086.50
2023-02-09T04:49:24.423Z,102086.94
2023-02-09T04:53:29.568Z,102082.53
2023-02-09T04:57:50.110Z,102071.75
2023-02-09T05:01:54.447Z,102075.25
2023-02-09T05:05:58.796Z,102080.53
2023-02-09T05:10:01.829Z,102092.53
2023-02-09T05:14:04.894Z,102093.41
2023-02-09T05:18:09.245Z,102085.56
2023-02-09T05:22:12.254Z,102087.06
2023-02-09T05:26:15.296Z,102074.44
2023-02-09T05:30:18.557Z,102073.31
2023-02-09T05:34:23.169Z,102066.47
2023-02-09T05:38:26.249Z,102062.34
2023-02-09T05:42:29.392Z,102057.69
2023-02-09T05:46:32.657Z,102053.72
2023-02-09T05:50:37.011Z,102048.91
2023-02-09T05:54:43.253Z,102049.06
2023-02-09T05:58:46.292Z,102066.72
2023-02-09T06:02:49.276Z,102068.94
2023-02-09T06:06:54.073Z,102075.16
2023-02-09T06:10:57.095Z,102077.09
2023-02-09T06:15:00.177Z,102078.81
2023-02-09T06:19:03.466Z,102092.31
2023-02-09T06:23:07.831Z,102093.84
2023-02-09T06:27:12.599Z,102086.25
2023-02-09T06:31:15.717Z,102084.00
2023-02-09T06:35:19.119Z,102094.34
2023-02-09T06:39:24.406Z,102100.06
2023-02-09T06:43:27.755Z,102106.19
2023-02-09T06:47:30.719Z,102106.13
2023-02-09T06:51:33.754Z,102114.94
2023-02-09T06:55:38.243Z,102106.66
2023-02-09T06:59:41.265Z,102118.31
2023-02-09T07:03:44.493Z,102120.81
2023-02-09T07:07:48.041Z,102119.94
2023-02-09T07:11:52.404Z,102126.03
2023-02-09T07:15:59.072Z,102126.66
2023-02-09T07:20:02.146Z,102113.09
2023-02-09T07:24:05.786Z,102123.19
2023-02-09T07:28:11.159Z,102119.72
2023-02-09T07:32:14.230Z,102121.38
2023-02-09T07:36:18.505Z,102121.31
2023-02-09T07:40:21.629Z,102117.44
2023-02-09T07:44:26.668Z,102122.41
2023-02-09T07:48:30.173Z,102102.28
2023-02-09T07:52:33.186Z,102106.44
2023-02-09T07:56:36.229Z,102111.22
2023-02-09T08:00:40.622Z,102098.78
2023-02-09T08:04:44.763Z,102102.34
2023-02-09T08:08:49.176Z,102108.03
2023-02-09T08:13:09.186Z,102120.69
2023-02-09T08:17:21.278Z,102132.97
2023-02-09T08:21:25.499Z,102146.19
2023-02-09T08:25:28.574Z,102146.72
2023-02-09T08:29:31.672Z,102137.00
2023-02-09T08:33:36.086Z,102139.69
2023-02-09T08:37:39.167Z,102149.22
2023-02-09T08:41:42.847Z,102160.75
2023-02-09T08:45:47.227Z,102151.28
2023-02-09T08:49:52.089Z,102148.88
2023-02-09T08:53:55.545Z,102156.94
2023-02-09T08:57:58.784Z,102158.69
2023-02-09T09:02:02.147Z,102167.50
2023-02-09T09:06:08.703Z,102171.84
2023-02-09T09:10:13.010Z,102171.31
2023-02-09T09:14:16.080Z,102179.72
2023-02-09T09:18:19.165Z,102175.56
2023-02-09T09:22:24.428Z,102168.06
2023-02-09T09:26:27.493Z,102175.41
2023-02-09T09:30:30.564Z,102171.06
2023-02-09T09:34:33.630Z,102184.47
2023-02-09T09:38:40.202Z,102181.94
2023-02-09T09:42:49.576Z,102177.22
2023-02-09T09:47:01.243Z,102179.63
2023-02-09T09:51:12.425Z,102163.06
2023-02-09T09:55:23.446Z,102139.00
2023-02-09T09:59:30.150Z,102130.16
2023-02-09T10:03:33.193Z,102121.56
2023-02-09T10:07:36.380Z,102141.28
2023-02-09T10:11:46.419Z,102140.00
2023-02-09T10:15:50.849Z,102144.63
2023-02-09T10:20:04.700Z,102161.16
2023-02-09T10:24:13.999Z,102161.22
2023-02-09T10:28:22.980Z,102163.66
2023-02-09T10:32:38.805Z,102165.91
2023-02-09T10:36:49.874Z,102154.78
2023-02-09T10:40:53.056Z,102146.31
2023-02-09T10:45:05.034Z,102142.03
2023-02-09T10:49:28.829Z,102158.66
2023-02-09T10:53:34.329Z,102163.38
2023-02-09T10:57:39.684Z,102149.47
2023-02-09T11:01:45.851Z,102145.81
2023-02-09T11:05:59.273Z,102152.72
2023-02-09T11:10:05.296Z,102165.94
2023-02-09T11:14:12.583Z,102156.72
2023-02-09T11:18:26.434Z,102153.59
2023-02-09T11:22:53.756Z,102157.44
2023-02-09T11:27:01.092Z,102159.47
2023-02-09T11:31:22.163Z,102149.53
2023-02-09T11:35:39.046Z,102142.75
2023-02-09T11:39:47.189Z,102126.38
2023-02-09T11:43:51.230Z,102127.06
2023-02-09T11:48:06.627Z,102133.69
2023-02-09T11:52:15.384Z,102136.75
2023-02-09T11:56:21.614Z,102146.56
2023-02-09T12:00:30.387Z,102120.94
2023-02-09T12:04:44.130Z,102122.88
2023-02-09T12:08:57.071Z,102114.47
2023-02-09T12:13:07.822Z,102119.16
2023-02-09T12:17:15.897Z,102128.16
2023-02-09T12:21:29.723Z,102125.41
2023-02-09T12:25:51.177Z,102126.28
2023-02-09T12:29:54.557Z,102138.97
2023-02-09T12:34:28.629Z,102139.09
2023-02-09T12:39:07.135Z,102132.78
2023-02-09T12:43:28.109Z,102148.13
2023-02-09T12:47:45.834Z,102133.56
2023-02-09T12:52:07.148Z,102141.00
2023-02-09T12:56:29.073Z,102137.28
2023-02-09T13:00:53.648Z,102128.97
2023-02-09T13:05:05.297Z,102126.94
2023-02-09T13:09:14.098Z,102132.88
2023-02-09T13:13:20.827Z,102120.19
2023-02-09T13:17:39.175Z,102105.63
2023-02-09T13:21:54.068Z,102109.53
2023-02-09T13:26:02.497Z,102097.50
2023-02-09T13:30:07.645Z,102099.53
2023-02-09T13:34:25.068Z,102102.16
2023-02-09T13:38:31.389Z,102096.47
2023-02-09T13:42:37.165Z,102112.94
2023-02-09T13:46:40.504Z,102114.34
2023-02-09T13:50:49.156Z,102123.16
2023-02-09T13:54:52.978Z,102124.13
2023-02-09T13:58:57.195Z,102134.69
2023-02-09T14:03:04.326Z,102131.69
2023-02-09T14:07:12.156Z,102128.81
2023-02-09T14:11:40.321Z,102121.72
2023-02-09T14:16:28.802Z,102116.56
2023-02-09T14:21:24.482Z,102098.88
2023-02-09T14:26:08.460Z,102105.53
2023-02-09T14:30:51.582Z,102113.34
2023-02-09T14:35:34.754Z,102112.25
2023-02-09T14:40:23.269Z,102121.19
2023-02-09T14:45:29.847Z,102108.97
2023-02-09T14:50:14.842Z,102115.72
2023-02-09T14:54:57.890Z,102116.81
2023-02-09T14:59:38.064Z,102116.47
2023-02-09T15:04:20.475Z,102117.13
2023-02-09T15:09:01.848Z,102128.59
2023-02-09T15:13:42.214Z,102128.66
2023-02-09T15:18:24.247Z,102130.78
2023-02-09T15:23:06.247Z,102144.84
2023-02-09T15:27:51.817Z,102139.13
2023-02-09T15:32:32.113Z,102142.75
2023-02-09T15:37:19.629Z,102146.72
2023-02-09T15:42:18.532Z,102151.59
2023-02-09T15:47:25.094Z,102149.56
2023-02-09T15:52:05.644Z,102150.69
2023-02-09T15:56:46.645Z,102166.69
2023-02-09T16:01:28.595Z,102168.97
2023-02-09T16:06:14.870Z,102166.13
2023-02-09T16:10:55.662Z,102172.72
2023-02-09T16:15:36.145Z,102180.47
2023-02-09T16:20:19.098Z,102186.66
2023-02-09T16:24:59.165Z,102202.25
2023-02-09T16:29:39.466Z,102196.16
2023-02-09T16:34:20.019Z,102207.75
2023-02-09T16:39:01.555Z,102227.78
2023-02-09T16:43:41.970Z,102235.91
2023-02-09T16:48:26.375Z,102236.13
2023-02-09T16:53:16.050Z,102245.47
2023-02-09T16:57:59.854Z,102240.44
2023-02-09T17:02:42.370Z,102244.53
2023-02-09T17:07:23.658Z,102244.06
2023-02-09T17:12:03.901Z,102247.81
2023-02-09T17:16:49.809Z,102252.97
2023-02-09T17:21:32.442Z,102248.94
2023-02-09T17:26:13.144Z,102249.00
2023-02-09T17:30:56.802Z,102265.50
2023-02-09T17:40:40.183Z,102272.41
2023-02-09T17:45:24.426Z,102273.53
2023-02-09T17:50:04.724Z,102279.28
2023-02-09T17:54:46.738Z,102289.38
2023-02-09T17:59:27.125Z,102288.38
2023-02-09T18:04:08.326Z,102298.97
2023-02-09T18:08:48.264Z,102300.91
2023-02-09T18:13:29.781Z,102314.44
2023-02-09T18:18:10.508Z,102303.81
2023-02-09T18:22:51.331Z,102303.31
2023-02-09T18:27:31.588Z,102307.34
2023-02-09T18:32:15.668Z,102309.94
2023-02-09T18:36:55.687Z,102326.78
2023-02-09T18:41:35.989Z,102319.13
2023-02-09T18:46:16.668Z,102323.44
2023-02-09T18:50:58.424Z,102330.28
2023-02-09T18:55:39.052Z,102339.16
2023-02-09T19:00:20.497Z,102328.06
2023-02-09T19:05:02.690Z,102332.22
2023-02-09T19:09:46.129Z,102347.50
2023-02-09T19:14:38.098Z,102342.97
2023-02-09T19:19:19.093Z,102353.19
2023-02-09T19:23:59.230Z,102360.06
2023-02-09T19:28:40.655Z,102354.78
2023-02-09T19:33:23.178Z,102362.53
2023-02-09T19:38:03.652Z,102362.66
2023-02-09T19:42:43.567Z,102363.88
2023-02-09T19:47:27.518Z,102360.31
2023-02-09T19:52:08.240Z,102374.59
2023-02-09T19:56:48.604Z,102374.59
2023-02-09T20:01:29.768Z,102378.78
2023-02-09T20:06:13.968Z,102384.56
2023-02-09T20:10:54.223Z,102404.66
2023-02-09T20:15:34.257Z,102398.97
2023-02-09T20:20:14.427Z,102394.69
2023-02-09T20:24:56.325Z,102404.81
2023-02-09T20:29:36.559Z,102406.19
2023-02-09T20:34:17.569Z,102422.19
2023-02-09T20:38:57.807Z,102438.44
2023-02-09T20:43:57.771Z,102420.47
2023-02-09T20:48:38.032Z,102436.72
2023-02-09T20:53:18.252Z,102445.59
2023-02-09T20:57:58.726Z,102443.88
2023-02-09T21:02:40.608Z,102445.34
2023-02-09T21:07:21.145Z,102447.06
2023-02-09T21:12:01.341Z,102432.50
2023-02-09T21:16:42.776Z,102433.50
2023-02-09T21:21:26.261Z,102437.47
2023-02-09T21:26:08.341Z,102449.28
2023-02-09T21:30:48.852Z,102464.44
2023-02-09T21:35:28.967Z,102450.50
2023-02-09T21:40:11.602Z,102456.19
2023-02-09T21:44:51.786Z,102452.72
2023-02-09T21:49:32.701Z,102456.44
2023-02-09T21:54:14.666Z,102457.31
2023-02-09T21:58:56.113Z,102456.19
2023-02-09T22:03:35.888Z,102462.72
2023-02-09T22:08:16.102Z,102465.56
2023-02-09T22:12:56.374Z,102461.84
2023-02-09T22:17:39.532Z,102454.72
2023-02-09T22:22:19.874Z,102447.56
2023-02-09T22:27:00.136Z,102451.53
2023-02-09T22:31:40.337Z,102467.06
2023-02-09T22:36:23.427Z,102464.09
2023-02-09T22:41:05.781Z,102469.53
2023-02-09T22:45:46.417Z,102462.09
2023-02-09T22:50:26.921Z,102470.63
2023-02-09T22:55:08.682Z,102482.84
2023-02-09T22:59:48.767Z,102481.47
2023-02-09T23:04:31.970Z,102476.44
2023-02-09T23:09:16.677Z,102470.91
2023-02-09T23:14:14.207Z,102479.41
2023-02-09T23:18:56.329Z,102480.38
2023-02-09T23:23:36.826Z,102476.41
2023-02-09T23:28:17.242Z,102489.72
2023-02-09T23:32:58.959Z,102496.09
2023-02-09T23:37:38.843Z,102492.63
2023-02-09T23:42:18.609Z,102496.34
2023-02-09T23:46:58.800Z,102513.97
2023-02-09T23:51:40.225Z,102524.53
2023-02-09T23:56:21.155Z,102540.97
